sensor_id;sensor_type;location;lat;lon;timestamp;temperature;humidity
2260;DHT22;333;48.800;9.530;2023-05-20T00:01:00;12.10;99.60
2260;DHT22;333;48.800;9.530;2023-05-20T00:03:27;12.30;99.60
2260;DHT22;333;48.800;9.530;2023-05-20T00:05:55;12.30;99.60
2260;DHT22;333;48.800;9.530;2023-05-20T00:08:22;12.40;99.60
2260;DHT22;333;48.800;9.530;2023-05-20T00:10:50;12.40;99.60
2260;DHT22;333;48.800;9.530;2023-05-20T00:13:17;12.40;99.60
2260;DHT22;333;48.800;9.530;2023-05-20T00:15:45;12.30;99.60
2260;DHT22;333;48.800;9.530;2023-05-20T00:18:12;12.40;99.60
2260;DHT22;333;48.800;9.530;2023-05-20T00:20:39;12.40;99.60
2260;DHT22;333;48.800;9.530;2023-05-20T00:23:06;12.30;99.60
2260;DHT22;333;48.800;9.530;2023-05-20T00:25:33;12.10;99.60
2260;DHT22;333;48.800;9.530;2023-05-20T00:28:00;12.30;99.60
2260;DHT22;333;48.800;9.530;2023-05-20T00:30:28;12.40;99.60
2260;DHT22;333;48.800;9.530;2023-05-20T00:32:56;12.40;99.60
2260;DHT22;333;48.800;9.530;2023-05-20T00:35:23;12.30;99.60
2260;DHT22;333;48.800;9.530;2023-05-20T00:37:50;12.30;99.60
2260;DHT22;333;48.800;9.530;2023-05-20T00:40:19;12.30;99.60
2260;DHT22;333;48.800;9.530;2023-05-20T00:42:48;12.30;99.60
2260;DHT22;333;48.800;9.530;2023-05-20T00:45:15;12.10;99.60
2260;DHT22;333;48.800;9.530;2023-05-20T00:47:42;12.20;99.60
2260;DHT22;333;48.800;9.530;2023-05-20T00:50:11;12.10;99.60
2260;DHT22;333;48.800;9.530;2023-05-20T00:52:45;12.20;99.60
2260;DHT22;333;48.800;9.530;2023-05-20T00:55:12;12.20;99.60
2260;DHT22;333;48.800;9.530;2023-05-20T00:57:40;12.10;99.60
2260;DHT22;333;48.800;9.530;2023-05-20T01:00:08;12.40;99.60
2260;DHT22;333;48.800;9.530;2023-05-20T01:02:36;12.30;99.60
2260;DHT22;333;48.800;9.530;2023-05-20T01:05:03;12.30;99.60
2260;DHT22;333;48.800;9.530;2023-05-20T01:07:32;12.30;99.60
2260;DHT22;333;48.800;9.530;2023-05-20T01:09:59;12.40;99.60
2260;DHT22;333;48.800;9.530;2023-05-20T01:12:28;12.20;99.60
2260;DHT22;333;48.800;9.530;2023-05-20T01:15:00;12.10;99.60
2260;DHT22;333;48.800;9.530;2023-05-20T01:17:30;12.10;99.60
2260;DHT22;333;48.800;9.530;2023-05-20T01:20:03;12.10;99.60
2260;DHT22;333;48.800;9.530;2023-05-20T01:22:36;12.00;99.60
2260;DHT22;333;48.800;9.530;2023-05-20T01:25:03;11.80;99.60
2260;DHT22;333;48.800;9.530;2023-05-20T01:27:30;11.70;99.60
2260;DHT22;333;48.800;9.530;2023-05-20T01:29:57;11.70;99.60
2260;DHT22;333;48.800;9.530;2023-05-20T01:32:27;11.60;99.60
2260;DHT22;333;48.800;9.530;2023-05-20T01:34:58;11.40;99.60
2260;DHT22;333;48.800;9.530;2023-05-20T01:37:26;11.30;99.60
2260;DHT22;333;48.800;9.530;2023-05-20T01:39:55;11.40;99.60
2260;DHT22;333;48.800;9.530;2023-05-20T01:42:26;11.40;99.60
2260;DHT22;333;48.800;9.530;2023-05-20T01:44:53;11.40;99.60
2260;DHT22;333;48.800;9.530;2023-05-20T01:47:20;11.40;99.60
2260;DHT22;333;48.800;9.530;2023-05-20T01:49:50;11.20;99.60
2260;DHT22;333;48.800;9.530;2023-05-20T01:52:19;11.20;99.60
2260;DHT22;333;48.800;9.530;2023-05-20T01:54:46;11.00;99.60
2260;DHT22;333;48.800;9.530;2023-05-20T01:57:19;10.90;99.60
2260;DHT22;333;48.800;9.530;2023-05-20T01:59:47;11.00;99.60
2260;DHT22;333;48.800;9.530;2023-05-20T02:02:14;11.00;99.60
2260;DHT22;333;48.800;9.530;2023-05-20T02:04:42;11.00;99.60
2260;DHT22;333;48.800;9.530;2023-05-20T02:07:12;11.00;99.60
2260;DHT22;333;48.800;9.530;2023-05-20T02:09:39;11.00;99.60
2260;DHT22;333;48.800;9.530;2023-05-20T02:12:07;11.00;99.60
2260;DHT22;333;48.800;9.530;2023-05-20T02:14:42;11.00;99.60
2260;DHT22;333;48.800;9.530;2023-05-20T02:17:09;11.00;99.60
2260;DHT22;333;48.800;9.530;2023-05-20T02:19:36;11.00;99.60
2260;DHT22;333;48.800;9.530;2023-05-20T02:22:03;11.10;99.60
2260;DHT22;333;48.800;9.530;2023-05-20T02:24:30;11.00;99.60
2260;DHT22;333;48.800;9.530;2023-05-20T02:26:59;11.00;99.60
2260;DHT22;333;48.800;9.530;2023-05-20T02:29:28;11.00;99.60
2260;DHT22;333;48.800;9.530;2023-05-20T02:31:56;11.10;99.60
2260;DHT22;333;48.800;9.530;2023-05-20T02:34:23;11.10;99.60
2260;DHT22;333;48.800;9.530;2023-05-20T02:36:51;11.00;99.60
2260;DHT22;333;48.800;9.530;2023-05-20T02:39:19;11.00;99.60
2260;DHT22;333;48.800;9.530;2023-05-20T02:41:46;11.10;99.60
2260;DHT22;333;48.800;9.530;2023-05-20T02:44:13;11.00;99.60
2260;DHT22;333;48.800;9.530;2023-05-20T02:46:40;11.20;99.60
2260;DHT22;333;48.800;9.530;2023-05-20T02:49:08;11.10;99.60
2260;DHT22;333;48.800;9.530;2023-05-20T02:51:35;11.10;99.60
2260;DHT22;333;48.800;9.530;2023-05-20T02:54:02;11.00;99.60
2260;DHT22;333;48.800;9.530;2023-05-20T02:56:29;11.00;99.60
2260;DHT22;333;48.800;9.530;2023-05-20T02:58:57;11.10;99.60
2260;DHT22;333;48.800;9.530;2023-05-20T03:01:24;11.20;99.60
2260;DHT22;333;48.800;9.530;2023-05-20T03:03:51;11.20;99.60
2260;DHT22;333;48.800;9.530;2023-05-20T03:06:20;11.10;99.60
2260;DHT22;333;48.800;9.530;2023-05-20T03:08:47;11.10;99.60
2260;DHT22;333;48.800;9.530;2023-05-20T03:11:14;11.10;99.60
2260;DHT22;333;48.800;9.530;2023-05-20T03:13:41;11.20;99.60
2260;DHT22;333;48.800;9.530;2023-05-20T03:16:09;11.10;99.60
2260;DHT22;333;48.800;9.530;2023-05-20T03:18:37;11.20;99.60
2260;DHT22;333;48.800;9.530;2023-05-20T03:21:04;11.10;99.60
2260;DHT22;333;48.800;9.530;2023-05-20T03:23:33;11.10;99.60
2260;DHT22;333;48.800;9.530;2023-05-20T03:26:00;11.20;99.60
2260;DHT22;333;48.800;9.530;2023-05-20T03:28:27;11.20;99.60
2260;DHT22;333;48.800;9.530;2023-05-20T03:30:54;11.20;99.60
2260;DHT22;333;48.800;9.530;2023-05-20T03:33:21;11.20;99.60
2260;DHT22;333;48.800;9.530;2023-05-20T03:35:50;11.20;99.60
2260;DHT22;333;48.800;9.530;2023-05-20T03:38:17;11.10;99.60
2260;DHT22;333;48.800;9.530;2023-05-20T03:40:46;11.10;99.60
2260;DHT22;333;48.800;9.530;2023-05-20T03:43:13;11.20;99.60
2260;DHT22;333;48.800;9.530;2023-05-20T03:45:40;11.20;99.60
2260;DHT22;333;48.800;9.530;2023-05-20T03:48:07;11.10;99.60
2260;DHT22;333;48.800;9.530;2023-05-20T03:50:34;11.00;99.60
2260;DHT22;333;48.800;9.530;2023-05-20T03:53:01;10.90;99.60
2260;DHT22;333;48.800;9.530;2023-05-20T03:55:28;11.10;99.60
2260;DHT22;333;48.800;9.530;2023-05-20T03:57:56;11.20;99.60
2260;DHT22;333;48.800;9.530;2023-05-20T04:00:23;11.20;99.60
2260;DHT22;333;48.800;9.530;2023-05-20T04:02:50;11.20;99.60
2260;DHT22;333;48.800;9.530;2023-05-20T04:05:17;11.20;99.60
2260;DHT22;333;48.800;9.530;2023-05-20T04:07:44;11.20;99.60
2260;DHT22;333;48.800;9.530;2023-05-20T04:10:11;11.20;99.60
2260;DHT22;333;48.800;9.530;2023-05-20T04:12:38;11.20;99.60
2260;DHT22;333;48.800;9.530;2023-05-20T04:15:08;11.30;99.60
2260;DHT22;333;48.800;9.530;2023-05-20T04:17:37;11.30;99.60
2260;DHT22;333;48.800;9.530;2023-05-20T04:20:06;11.40;99.60
2260;DHT22;333;48.800;9.530;2023-05-20T04:22:33;11.40;99.60
2260;DHT22;333;48.800;9.530;2023-05-20T04:25:00;11.40;99.60
2260;DHT22;333;48.800;9.530;2023-05-20T04:27:28;11.40;99.60
2260;DHT22;333;48.800;9.530;2023-05-20T04:29:55;11.60;99.60
2260;DHT22;333;48.800;9.530;2023-05-20T04:32:25;11.70;99.60
2260;DHT22;333;48.800;9.530;2023-05-20T04:34:52;11.70;99.60
2260;DHT22;333;48.800;9.530;2023-05-20T04:37:20;11.80;99.60
2260;DHT22;333;48.800;9.530;2023-05-20T04:39:48;11.90;99.60
2260;DHT22;333;48.800;9.530;2023-05-20T04:42:15;12.00;99.60
2260;DHT22;333;48.800;9.530;2023-05-20T04:44:44;12.10;99.60
2260;DHT22;333;48.800;9.530;2023-05-20T04:47:13;12.10;99.60
2260;DHT22;333;48.800;9.530;2023-05-20T04:49:42;12.10;99.60
2260;DHT22;333;48.800;9.530;2023-05-20T04:52:10;12.10;99.60
2260;DHT22;333;48.800;9.530;2023-05-20T04:54:37;12.20;99.60
2260;DHT22;333;48.800;9.530;2023-05-20T04:57:04;12.30;99.60
2260;DHT22;333;48.800;9.530;2023-05-20T04:59:32;12.40;99.60
2260;DHT22;333;48.800;9.530;2023-05-20T05:01:59;12.80;99.60
2260;DHT22;333;48.800;9.530;2023-05-20T05:04:26;13.10;99.60
2260;DHT22;333;48.800;9.530;2023-05-20T05:06:54;13.20;99.60
2260;DHT22;333;48.800;9.530;2023-05-20T05:09:21;13.30;99.60
2260;DHT22;333;48.800;9.530;2023-05-20T05:11:48;13.50;99.60
2260;DHT22;333;48.800;9.530;2023-05-20T05:14:21;13.60;99.60
2260;DHT22;333;48.800;9.530;2023-05-20T05:16:48;13.80;99.60
2260;DHT22;333;48.800;9.530;2023-05-20T05:19:15;13.90;99.60
2260;DHT22;333;48.800;9.530;2023-05-20T05:21:42;14.10;99.60
2260;DHT22;333;48.800;9.530;2023-05-20T05:24:10;14.30;99.60
2260;DHT22;333;48.800;9.530;2023-05-20T05:26:37;14.30;99.60
2260;DHT22;333;48.800;9.530;2023-05-20T05:29:04;14.30;99.60
2260;DHT22;333;48.800;9.530;2023-05-20T05:31:31;14.10;99.60
2260;DHT22;333;48.800;9.530;2023-05-20T05:33:58;14.10;99.60
2260;DHT22;333;48.800;9.530;2023-05-20T05:36:25;14.00;99.60
2260;DHT22;333;48.800;9.530;2023-05-20T05:38:52;13.80;99.60
2260;DHT22;333;48.800;9.530;2023-05-20T05:41:20;13.80;99.60
2260;DHT22;333;48.800;9.530;2023-05-20T05:43:47;13.70;99.60
2260;DHT22;333;48.800;9.530;2023-05-20T05:46:14;13.70;99.60
2260;DHT22;333;48.800;9.530;2023-05-20T05:48:41;13.90;99.60
2260;DHT22;333;48.800;9.530;2023-05-20T05:51:13;14.00;99.60
2260;DHT22;333;48.800;9.530;2023-05-20T05:53:40;14.10;99.60
2260;DHT22;333;48.800;9.530;2023-05-20T05:56:08;14.30;99.60
2260;DHT22;333;48.800;9.530;2023-05-20T05:58:37;14.50;99.60
2260;DHT22;333;48.800;9.530;2023-05-20T06:01:04;14.60;99.60
2260;DHT22;333;48.800;9.530;2023-05-20T06:03:31;14.60;99.60
2260;DHT22;333;48.800;9.530;2023-05-20T06:05:58;14.70;99.60
2260;DHT22;333;48.800;9.530;2023-05-20T06:08:25;14.80;99.60
2260;DHT22;333;48.800;9.530;2023-05-20T06:10:52;14.90;99.60
2260;DHT22;333;48.800;9.530;2023-05-20T06:13:19;15.20;99.60
2260;DHT22;333;48.800;9.530;2023-05-20T06:15:49;15.30;99.60
2260;DHT22;333;48.800;9.530;2023-05-20T06:18:18;15.50;99.60
2260;DHT22;333;48.800;9.530;2023-05-20T06:20:45;15.70;99.60
2260;DHT22;333;48.800;9.530;2023-05-20T06:23:12;15.90;99.60
2260;DHT22;333;48.800;9.530;2023-05-20T06:25:39;15.80;99.60
2260;DHT22;333;48.800;9.530;2023-05-20T06:28:06;15.90;99.60
2260;DHT22;333;48.800;9.530;2023-05-20T06:30:33;16.10;99.60
2260;DHT22;333;48.800;9.530;2023-05-20T06:33:02;16.20;99.60
2260;DHT22;333;48.800;9.530;2023-05-20T06:35:29;16.30;99.60
2260;DHT22;333;48.800;9.530;2023-05-20T06:37:56;16.30;99.60
2260;DHT22;333;48.800;9.530;2023-05-20T06:40:23;16.20;99.60
2260;DHT22;333;48.800;9.530;2023-05-20T06:42:51;16.40;99.60
2260;DHT22;333;48.800;9.530;2023-05-20T06:45:19;16.40;99.60
2260;DHT22;333;48.800;9.530;2023-05-20T06:47:46;16.70;99.60
2260;DHT22;333;48.800;9.530;2023-05-20T06:50:15;16.70;99.60
2260;DHT22;333;48.800;9.530;2023-05-20T06:52:42;16.80;99.60
2260;DHT22;333;48.800;9.530;2023-05-20T06:55:09;17.00;99.60
2260;DHT22;333;48.800;9.530;2023-05-20T06:57:36;16.90;99.60
2260;DHT22;333;48.800;9.530;2023-05-20T07:00:04;16.70;99.60
2260;DHT22;333;48.800;9.530;2023-05-20T07:02:32;16.80;99.60
2260;DHT22;333;48.800;9.530;2023-05-20T07:04:59;16.80;99.60
2260;DHT22;333;48.800;9.530;2023-05-20T07:07:28;17.10;99.60
2260;DHT22;333;48.800;9.530;2023-05-20T07:09:55;17.30;99.60
2260;DHT22;333;48.800;9.530;2023-05-20T07:12:22;17.30;99.60
2260;DHT22;333;48.800;9.530;2023-05-20T07:14:52;17.30;99.60
2260;DHT22;333;48.800;9.530;2023-05-20T07:17:19;17.20;99.60
2260;DHT22;333;48.800;9.530;2023-05-20T07:19:46;17.20;99.60
2260;DHT22;333;48.800;9.530;2023-05-20T07:22:13;17.30;99.60
2260;DHT22;333;48.800;9.530;2023-05-20T07:24:41;17.30;99.60
2260;DHT22;333;48.800;9.530;2023-05-20T07:27:08;17.50;99.60
2260;DHT22;333;48.800;9.530;2023-05-20T07:29:36;17.70;99.60
2260;DHT22;333;48.800;9.530;2023-05-20T07:32:07;17.60;99.60
2260;DHT22;333;48.800;9.530;2023-05-20T07:34:34;17.50;99.60
2260;DHT22;333;48.800;9.530;2023-05-20T07:37:01;17.50;99.60
2260;DHT22;333;48.800;9.530;2023-05-20T07:39:28;17.50;99.60
2260;DHT22;333;48.800;9.530;2023-05-20T07:41:57;17.60;99.60
2260;DHT22;333;48.800;9.530;2023-05-20T07:44:24;17.70;99.60
2260;DHT22;333;48.800;9.530;2023-05-20T07:46:51;17.80;99.60
2260;DHT22;333;48.800;9.530;2023-05-20T07:49:18;18.10;99.60
2260;DHT22;333;48.800;9.530;2023-05-20T07:51:45;18.30;99.60
2260;DHT22;333;48.800;9.530;2023-05-20T07:54:12;18.30;99.60
2260;DHT22;333;48.800;9.530;2023-05-20T07:56:39;18.20;99.60
2260;DHT22;333;48.800;9.530;2023-05-20T07:59:08;18.20;99.60
2260;DHT22;333;48.800;9.530;2023-05-20T08:01:35;18.40;99.60
2260;DHT22;333;48.800;9.530;2023-05-20T08:04:02;18.60;99.60
2260;DHT22;333;48.800;9.530;2023-05-20T08:06:30;18.60;99.60
2260;DHT22;333;48.800;9.530;2023-05-20T08:09:01;18.30;99.60
2260;DHT22;333;48.800;9.530;2023-05-20T08:11:29;18.20;99.60
2260;DHT22;333;48.800;9.530;2023-05-20T08:13:56;18.50;99.60
2260;DHT22;333;48.800;9.530;2023-05-20T08:16:24;18.10;99.60
2260;DHT22;333;48.800;9.530;2023-05-20T08:18:51;18.10;99.60
2260;DHT22;333;48.800;9.530;2023-05-20T08:21:18;18.00;99.60
2260;DHT22;333;48.800;9.530;2023-05-20T08:23:46;18.10;99.60
2260;DHT22;333;48.800;9.530;2023-05-20T08:26:15;18.30;99.60
2260;DHT22;333;48.800;9.530;2023-05-20T08:28:42;18.00;99.60
2260;DHT22;333;48.800;9.530;2023-05-20T08:31:09;18.30;99.60
2260;DHT22;333;48.800;9.530;2023-05-20T08:33:38;18.70;99.60
2260;DHT22;333;48.800;9.530;2023-05-20T08:36:06;19.00;99.60
2260;DHT22;333;48.800;9.530;2023-05-20T08:38:33;19.40;99.60
2260;DHT22;333;48.800;9.530;2023-05-20T08:41:01;19.70;99.60
2260;DHT22;333;48.800;9.530;2023-05-20T08:43:28;19.80;99.60
2260;DHT22;333;48.800;9.530;2023-05-20T08:45:57;19.80;99.60
2260;DHT22;333;48.800;9.530;2023-05-20T08:48:25;20.10;99.60
2260;DHT22;333;48.800;9.530;2023-05-20T08:50:56;20.10;99.60
2260;DHT22;333;48.800;9.530;2023-05-20T08:53:24;19.40;99.60
2260;DHT22;333;48.800;9.530;2023-05-20T08:55:53;18.90;99.60
2260;DHT22;333;48.800;9.530;2023-05-20T08:58:22;18.80;99.60
2260;DHT22;333;48.800;9.530;2023-05-20T09:00:50;18.80;99.60
2260;DHT22;333;48.800;9.530;2023-05-20T09:03:17;18.90;99.60
2260;DHT22;333;48.800;9.530;2023-05-20T09:05:45;19.20;99.60
2260;DHT22;333;48.800;9.530;2023-05-20T09:08:14;19.40;99.60
2260;DHT22;333;48.800;9.530;2023-05-20T09:10:41;19.70;99.60
2260;DHT22;333;48.800;9.530;2023-05-20T09:13:10;20.10;99.60
2260;DHT22;333;48.800;9.530;2023-05-20T09:15:37;20.60;99.60
2260;DHT22;333;48.800;9.530;2023-05-20T09:18:06;20.00;99.60
2260;DHT22;333;48.800;9.530;2023-05-20T09:20:35;19.90;99.60
2260;DHT22;333;48.800;9.530;2023-05-20T09:23:03;20.70;99.60
2260;DHT22;333;48.800;9.530;2023-05-20T09:25:32;21.60;99.60
2260;DHT22;333;48.800;9.530;2023-05-20T09:27:59;21.30;99.10
2260;DHT22;333;48.800;9.530;2023-05-20T09:30:26;21.40;98.00
2260;DHT22;333;48.800;9.530;2023-05-20T09:32:54;20.70;99.00
2260;DHT22;333;48.800;9.530;2023-05-20T09:35:21;20.50;99.60
2260;DHT22;333;48.800;9.530;2023-05-20T09:37:51;21.10;99.60
2260;DHT22;333;48.800;9.530;2023-05-20T09:40:22;21.50;96.60
2260;DHT22;333;48.800;9.530;2023-05-20T09:42:52;21.40;97.70
2260;DHT22;333;48.800;9.530;2023-05-20T09:45:20;21.30;97.90
2260;DHT22;333;48.800;9.530;2023-05-20T09:47:50;20.80;98.60
2260;DHT22;333;48.800;9.530;2023-05-20T09:50:18;20.80;98.80
2260;DHT22;333;48.800;9.530;2023-05-20T09:52:50;20.70;99.60
2260;DHT22;333;48.800;9.530;2023-05-20T09:55:18;21.10;98.60
2260;DHT22;333;48.800;9.530;2023-05-20T09:57:45;21.30;97.80
2260;DHT22;333;48.800;9.530;2023-05-20T10:00:15;21.40;98.50
2260;DHT22;333;48.800;9.530;2023-05-20T10:02:43;21.40;97.20
2260;DHT22;333;48.800;9.530;2023-05-20T10:05:15;20.90;99.60
2260;DHT22;333;48.800;9.530;2023-05-20T10:08:09;21.60;98.60
2260;DHT22;333;48.800;9.530;2023-05-20T10:10:44;21.40;95.60
2260;DHT22;333;48.800;9.530;2023-05-20T10:13:26;21.50;96.90
2260;DHT22;333;48.800;9.530;2023-05-20T10:16:05;21.30;95.50
2260;DHT22;333;48.800;9.530;2023-05-20T10:18:43;21.30;97.80
2260;DHT22;333;48.800;9.530;2023-05-20T10:21:16;21.10;97.20
2260;DHT22;333;48.800;9.530;2023-05-20T10:23:43;21.20;97.00
2260;DHT22;333;48.800;9.530;2023-05-20T10:26:10;21.20;97.50
2260;DHT22;333;48.800;9.530;2023-05-20T10:28:39;21.30;96.90
2260;DHT22;333;48.800;9.530;2023-05-20T10:31:16;21.80;96.40
2260;DHT22;333;48.800;9.530;2023-05-20T10:33:44;22.20;95.40
2260;DHT22;333;48.800;9.530;2023-05-20T10:36:21;22.70;94.90
2260;DHT22;333;48.800;9.530;2023-05-20T10:38:53;22.20;95.60
2260;DHT22;333;48.800;9.530;2023-05-20T10:41:23;22.50;94.40
2260;DHT22;333;48.800;9.530;2023-05-20T10:44:00;22.90;92.70
2260;DHT22;333;48.800;9.530;2023-05-20T10:46:29;22.50;91.80
2260;DHT22;333;48.800;9.530;2023-05-20T10:48:56;22.80;92.10
2260;DHT22;333;48.800;9.530;2023-05-20T10:51:24;23.00;92.00
2260;DHT22;333;48.800;9.530;2023-05-20T10:53:54;23.10;91.40
2260;DHT22;333;48.800;9.530;2023-05-20T10:56:25;23.20;93.90
2260;DHT22;333;48.800;9.530;2023-05-20T10:58:53;23.50;90.00
2260;DHT22;333;48.800;9.530;2023-05-20T11:01:23;24.00;90.00
2260;DHT22;333;48.800;9.530;2023-05-20T11:03:53;23.30;90.00
2260;DHT22;333;48.800;9.530;2023-05-20T11:06:25;23.00;92.50
2260;DHT22;333;48.800;9.530;2023-05-20T11:08:53;23.10;92.10
2260;DHT22;333;48.800;9.530;2023-05-20T11:11:21;23.30;91.00
2260;DHT22;333;48.800;9.530;2023-05-20T11:13:50;23.50;91.60
2260;DHT22;333;48.800;9.530;2023-05-20T11:16:19;23.10;90.50
2260;DHT22;333;48.800;9.530;2023-05-20T11:18:48;23.00;91.20
2260;DHT22;333;48.800;9.530;2023-05-20T11:21:17;23.20;90.30
2260;DHT22;333;48.800;9.530;2023-05-20T11:23:44;23.10;91.10
2260;DHT22;333;48.800;9.530;2023-05-20T11:26:11;23.30;91.30
2260;DHT22;333;48.800;9.530;2023-05-20T11:28:39;23.60;89.80
2260;DHT22;333;48.800;9.530;2023-05-20T11:31:06;23.90;90.60
2260;DHT22;333;48.800;9.530;2023-05-20T11:33:33;23.70;89.60
2260;DHT22;333;48.800;9.530;2023-05-20T11:36:01;23.80;88.90
2260;DHT22;333;48.800;9.530;2023-05-20T11:38:30;24.10;87.80
2260;DHT22;333;48.800;9.530;2023-05-20T11:40:57;24.00;88.60
2260;DHT22;333;48.800;9.530;2023-05-20T11:43:24;24.00;90.30
2260;DHT22;333;48.800;9.530;2023-05-20T11:45:54;24.30;88.00
2260;DHT22;333;48.800;9.530;2023-05-20T11:48:27;24.30;89.50
2260;DHT22;333;48.800;9.530;2023-05-20T11:50:55;24.00;86.80
2260;DHT22;333;48.800;9.530;2023-05-20T11:53:23;24.20;87.50
2260;DHT22;333;48.800;9.530;2023-05-20T11:55:54;24.80;86.40
2260;DHT22;333;48.800;9.530;2023-05-20T11:58:23;25.40;85.70
2260;DHT22;333;48.800;9.530;2023-05-20T12:00:50;25.00;84.50
2260;DHT22;333;48.800;9.530;2023-05-20T12:03:18;24.50;85.20
2260;DHT22;333;48.800;9.530;2023-05-20T12:05:45;24.20;86.60
2260;DHT22;333;48.800;9.530;2023-05-20T12:08:13;24.00;88.00
2260;DHT22;333;48.800;9.530;2023-05-20T12:10:40;23.50;87.20
2260;DHT22;333;48.800;9.530;2023-05-20T12:13:08;23.60;89.40
2260;DHT22;333;48.800;9.530;2023-05-20T12:15:38;23.80;87.50
2260;DHT22;333;48.800;9.530;2023-05-20T12:18:05;23.90;87.30
2260;DHT22;333;48.800;9.530;2023-05-20T12:20:32;23.80;88.70
2260;DHT22;333;48.800;9.530;2023-05-20T12:23:00;24.00;87.80
2260;DHT22;333;48.800;9.530;2023-05-20T12:25:27;24.20;87.90
2260;DHT22;333;48.800;9.530;2023-05-20T12:27:54;24.30;86.10
2260;DHT22;333;48.800;9.530;2023-05-20T12:30:23;24.40;86.40
2260;DHT22;333;48.800;9.530;2023-05-20T12:32:50;24.60;86.20
2260;DHT22;333;48.800;9.530;2023-05-20T12:35:24;24.60;86.20
2260;DHT22;333;48.800;9.530;2023-05-20T12:37:52;24.80;86.20
2260;DHT22;333;48.800;9.530;2023-05-20T12:40:20;24.80;84.40
2260;DHT22;333;48.800;9.530;2023-05-20T12:42:46;24.80;86.60
2260;DHT22;333;48.800;9.530;2023-05-20T12:45:14;25.10;87.20
2260;DHT22;333;48.800;9.530;2023-05-20T12:47:42;24.80;83.20
2260;DHT22;333;48.800;9.530;2023-05-20T12:50:10;24.60;85.30
2260;DHT22;333;48.800;9.530;2023-05-20T12:52:37;24.60;85.60
2260;DHT22;333;48.800;9.530;2023-05-20T12:55:04;25.20;83.70
2260;DHT22;333;48.800;9.530;2023-05-20T12:57:38;25.60;82.30
2260;DHT22;333;48.800;9.530;2023-05-20T13:00:06;25.90;80.40
2260;DHT22;333;48.800;9.530;2023-05-20T13:02:36;26.10;81.40
2260;DHT22;333;48.800;9.530;2023-05-20T13:05:05;26.20;80.90
2260;DHT22;333;48.800;9.530;2023-05-20T13:07:32;26.80;81.10
2260;DHT22;333;48.800;9.530;2023-05-20T13:09:59;26.20;80.90
2260;DHT22;333;48.800;9.530;2023-05-20T13:12:26;25.10;82.50
2260;DHT22;333;48.800;9.530;2023-05-20T13:14:53;25.30;82.60
2260;DHT22;333;48.800;9.530;2023-05-20T13:17:20;25.20;84.80
2260;DHT22;333;48.800;9.530;2023-05-20T13:19:47;25.80;82.90
2260;DHT22;333;48.800;9.530;2023-05-20T13:22:16;25.60;82.80
2260;DHT22;333;48.800;9.530;2023-05-20T13:24:44;25.90;82.80
2260;DHT22;333;48.800;9.530;2023-05-20T13:27:11;26.00;81.50
2260;DHT22;333;48.800;9.530;2023-05-20T13:29:38;26.00;82.50
2260;DHT22;333;48.800;9.530;2023-05-20T13:32:05;26.20;80.60
2260;DHT22;333;48.800;9.530;2023-05-20T13:34:32;26.30;79.60
2260;DHT22;333;48.800;9.530;2023-05-20T13:36:59;25.70;80.80
2260;DHT22;333;48.800;9.530;2023-05-20T13:39:28;25.80;82.20
2260;DHT22;333;48.800;9.530;2023-05-20T13:41:55;26.20;81.50
2260;DHT22;333;48.800;9.530;2023-05-20T13:44:22;26.20;80.70
2260;DHT22;333;48.800;9.530;2023-05-20T13:46:50;25.60;81.10
2260;DHT22;333;48.800;9.530;2023-05-20T13:49:17;24.80;82.90
2260;DHT22;333;48.800;9.530;2023-05-20T13:51:44;24.60;84.60
2260;DHT22;333;48.800;9.530;2023-05-20T13:54:11;24.30;85.60
2260;DHT22;333;48.800;9.530;2023-05-20T13:56:39;24.20;85.50
2260;DHT22;333;48.800;9.530;2023-05-20T13:59:07;24.20;85.50
2260;DHT22;333;48.800;9.530;2023-05-20T14:01:34;24.00;85.70
2260;DHT22;333;48.800;9.530;2023-05-20T14:04:01;24.40;85.60
2260;DHT22;333;48.800;9.530;2023-05-20T14:06:28;24.90;83.60
2260;DHT22;333;48.800;9.530;2023-05-20T14:08:56;26.00;81.80
2260;DHT22;333;48.800;9.530;2023-05-20T14:11:23;26.30;79.60
2260;DHT22;333;48.800;9.530;2023-05-20T14:13:52;25.90;81.90
2260;DHT22;333;48.800;9.530;2023-05-20T14:16:18;26.10;81.10
2260;DHT22;333;48.800;9.530;2023-05-20T14:18:46;26.60;79.30
2260;DHT22;333;48.800;9.530;2023-05-20T14:21:13;26.80;78.60
2260;DHT22;333;48.800;9.530;2023-05-20T14:23:40;26.60;78.20
2260;DHT22;333;48.800;9.530;2023-05-20T14:26:09;27.10;78.00
2260;DHT22;333;48.800;9.530;2023-05-20T14:28:36;27.90;77.00
2260;DHT22;333;48.800;9.530;2023-05-20T14:31:04;27.70;75.80
2260;DHT22;333;48.800;9.530;2023-05-20T14:33:31;27.90;76.10
2260;DHT22;333;48.800;9.530;2023-05-20T14:35:59;28.10;75.70
2260;DHT22;333;48.800;9.530;2023-05-20T14:38:27;27.60;77.20
2260;DHT22;333;48.800;9.530;2023-05-20T14:40:53;27.10;78.70
2260;DHT22;333;48.800;9.530;2023-05-20T14:43:20;26.70;77.80
2260;DHT22;333;48.800;9.530;2023-05-20T14:45:47;26.30;80.40
2260;DHT22;333;48.800;9.530;2023-05-20T14:48:16;26.30;79.30
2260;DHT22;333;48.800;9.530;2023-05-20T14:50:43;27.10;80.00
2260;DHT22;333;48.800;9.530;2023-05-20T14:53:10;26.90;79.00
2260;DHT22;333;48.800;9.530;2023-05-20T14:55:37;27.10;77.10
2260;DHT22;333;48.800;9.530;2023-05-20T14:58:04;26.40;79.00
2260;DHT22;333;48.800;9.530;2023-05-20T15:00:31;26.70;79.40
2260;DHT22;333;48.800;9.530;2023-05-20T15:02:58;26.80;78.70
2260;DHT22;333;48.800;9.530;2023-05-20T15:05:26;26.80;79.60
2260;DHT22;333;48.800;9.530;2023-05-20T15:07:53;27.10;79.50
2260;DHT22;333;48.800;9.530;2023-05-20T15:10:20;27.40;77.50
2260;DHT22;333;48.800;9.530;2023-05-20T15:12:47;26.90;78.40
2260;DHT22;333;48.800;9.530;2023-05-20T15:15:15;26.70;79.80
2260;DHT22;333;48.800;9.530;2023-05-20T15:17:42;26.80;81.70
2260;DHT22;333;48.800;9.530;2023-05-20T15:20:10;27.10;79.80
2260;DHT22;333;48.800;9.530;2023-05-20T15:22:39;27.30;78.80
2260;DHT22;333;48.800;9.530;2023-05-20T15:25:08;27.40;78.70
2260;DHT22;333;48.800;9.530;2023-05-20T15:27:35;26.80;79.20
2260;DHT22;333;48.800;9.530;2023-05-20T15:30:02;26.50;80.60
2260;DHT22;333;48.800;9.530;2023-05-20T15:32:30;26.50;79.80
2260;DHT22;333;48.800;9.530;2023-05-20T15:34:57;27.00;80.60
2260;DHT22;333;48.800;9.530;2023-05-20T15:37:24;27.70;78.00
2260;DHT22;333;48.800;9.530;2023-05-20T15:39:52;27.90;78.80
2260;DHT22;333;48.800;9.530;2023-05-20T15:42:19;28.00;77.30
2260;DHT22;333;48.800;9.530;2023-05-20T15:44:46;27.80;77.60
2260;DHT22;333;48.800;9.530;2023-05-20T15:47:15;27.40;77.80
2260;DHT22;333;48.800;9.530;2023-05-20T15:49:42;27.20;78.60
2260;DHT22;333;48.800;9.530;2023-05-20T15:52:09;27.20;78.00
2260;DHT22;333;48.800;9.530;2023-05-20T15:54:36;27.00;77.70
2260;DHT22;333;48.800;9.530;2023-05-20T15:57:05;27.10;77.60
2260;DHT22;333;48.800;9.530;2023-05-20T15:59:32;27.50;77.80
2260;DHT22;333;48.800;9.530;2023-05-20T16:01:59;27.20;78.20
2260;DHT22;333;48.800;9.530;2023-05-20T16:04:26;26.80;77.70
2260;DHT22;333;48.800;9.530;2023-05-20T16:06:53;26.10;80.00
2260;DHT22;333;48.800;9.530;2023-05-20T16:09:20;26.30;79.60
2260;DHT22;333;48.800;9.530;2023-05-20T16:11:47;26.80;77.50
2260;DHT22;333;48.800;9.530;2023-05-20T16:14:16;27.10;78.40
2260;DHT22;333;48.800;9.530;2023-05-20T16:16:43;27.20;77.70
2260;DHT22;333;48.800;9.530;2023-05-20T16:19:10;27.40;77.40
2260;DHT22;333;48.800;9.530;2023-05-20T16:21:37;27.70;76.30